Time;durP1;ratioP1;P1;durP2;ratioP2;P2;SDS_P1;SDS_P2;PMS_P1;PMS_P2;Temp;Humidity;BMP_temperature;BMP_pressure;BME280_temperature;BME280_humidity;BME280_pressure;Samples;Min_cycle;Max_cycle;Signal;HPM_P1;HPM_P2
2021/03/13 00:00:51;;;;;;;5.45;1.00;;;;;;;2.94;57.78;96132.84;5004314;28;20060;-74
2021/03/13 00:03:19;;;;;;;3.35;0.80;;;;;;;2.99;57.09;96125.56;5018895;28;20042;-74
2021/03/13 00:05:46;;;;;;;4.10;0.93;;;;;;;2.87;57.67;96132.56;5003390;28;20038;-73
2021/03/13 00:08:13;;;;;;;2.73;0.80;;;;;;;2.89;57.56;96135.81;5016501;28;20056;-73
2021/03/13 00:10:41;;;;;;;2.70;0.88;;;;;;;3.05;57.17;96130.16;5018981;28;20038;-73
2021/03/13 00:13:10;;;;;;;1.73;0.80;;;;;;;2.95;56.94;96135.28;5014649;28;20054;-73
2021/03/13 00:15:38;;;;;;;3.55;0.98;;;;;;;3.02;57.04;96136.34;5001624;28;20045;-74
2021/03/13 00:18:05;;;;;;;6.70;1.20;;;;;;;2.92;57.21;96129.59;5016790;28;20506;-73
2021/03/13 00:20:35;;;;;;;3.85;0.95;;;;;;;2.90;57.36;96134.88;5012295;28;20053;-75
2021/03/13 00:23:02;;;;;;;3.20;0.90;;;;;;;2.99;57.20;96140.97;5012888;28;20034;-74
2021/03/13 00:25:29;;;;;;;4.43;1.03;;;;;;;2.95;57.08;96140.44;5015882;28;20073;-73
2021/03/13 00:27:56;;;;;;;5.60;1.05;;;;;;;3.12;56.61;96156.16;5014290;28;20101;-73
2021/03/13 00:30:28;;;;;;;4.57;1.10;;;;;;;3.01;56.88;96146.81;5002222;28;20061;-73
2021/03/13 00:33:02;;;;;;;5.55;1.13;;;;;;;3.06;56.53;96140.28;4999307;28;20042;-74
2021/03/13 00:35:30;;;;;;;5.93;1.42;;;;;;;3.15;56.23;96138.66;4997877;28;20042;-73
2021/03/13 00:37:57;;;;;;;3.63;1.25;;;;;;;3.13;56.29;96142.31;5002397;28;20048;-73
2021/03/13 00:40:26;;;;;;;3.47;1.27;;;;;;;3.01;56.59;96145.03;5010486;28;20041;-73
2021/03/13 00:42:52;;;;;;;2.83;1.00;;;;;;;3.12;56.38;96140.72;4999507;28;20042;-74
2021/03/13 00:45:22;;;;;;;2.03;0.95;;;;;;;3.04;57.07;96143.94;5016951;28;20510;-73
2021/03/13 00:47:49;;;;;;;4.18;1.33;;;;;;;2.97;57.45;96138.53;4997976;28;20629;-73
2021/03/13 00:50:18;;;;;;;4.30;1.25;;;;;;;2.81;58.48;96143.38;5000345;28;20045;-73
2021/03/13 00:52:46;;;;;;;2.63;1.10;;;;;;;2.60;59.72;96138.34;5014065;28;20144;-73
2021/03/13 00:55:13;;;;;;;1.85;1.00;;;;;;;2.61;59.49;96138.22;5012444;28;20034;-73
2021/03/13 00:57:44;;;;;;;3.95;1.38;;;;;;;2.52;59.74;96133.03;5013785;28;20557;-76
2021/03/13 01:00:18;;;;;;;3.38;1.20;;;;;;;2.56;59.07;96135.25;5009881;28;20058;-73
2021/03/13 01:02:45;;;;;;;4.28;1.10;;;;;;;2.46;59.76;96129.25;5000273;28;20613;-74
2021/03/13 01:05:14;;;;;;;1.50;1.00;;;;;;;2.46;59.37;96129.25;5000815;28;20038;-73
2021/03/13 01:07:41;;;;;;;3.30;1.00;;;;;;;2.47;59.02;96123.16;5013705;28;20073;-74
2021/03/13 01:10:23;;;;;;;3.28;1.13;;;;;;;2.65;58.22;96118.22;5000725;28;20096;-73
2021/03/13 01:12:49;;;;;;;4.63;1.10;;;;;;;2.60;58.10;96118.63;4999618;28;20103;-73
2021/03/13 01:15:18;;;;;;;2.28;0.80;;;;;;;2.70;58.11;96120.38;5013670;28;20052;-73
2021/03/13 01:17:47;;;;;;;1.98;0.98;;;;;;;2.90;57.00;96121.19;4999672;28;20046;-73
2021/03/13 01:20:16;;;;;;;5.30;1.05;;;;;;;2.68;58.17;96117.13;5000367;28;20109;-73
2021/03/13 01:22:44;;;;;;;4.55;0.77;;;;;;;2.49;59.29;96118.69;4996775;28;20042;-74
2021/03/13 01:25:12;;;;;;;4.95;0.82;;;;;;;2.57;58.87;96111.16;5016387;28;20052;-73
2021/03/13 01:27:39;;;;;;;2.83;0.93;;;;;;;2.41;59.59;96106.53;4998240;28;20039;-73
2021/03/13 01:30:10;;;;;;;5.22;1.45;;;;;;;2.22;60.13;96107.28;4999469;28;20046;-73
2021/03/13 01:32:37;;;;;;;3.03;1.05;;;;;;;2.28;59.72;96090.53;5012727;28;20200;-73
2021/03/13 01:35:04;;;;;;;4.25;0.95;;;;;;;2.32;59.79;96093.66;5015177;28;20061;-73
2021/03/13 01:37:31;;;;;;;2.28;1.00;;;;;;;2.07;60.42;96082.91;4999805;28;20126;-74
2021/03/13 01:39:57;;;;;;;4.75;1.17;;;;;;;2.22;59.81;96089.31;5013786;28;20056;-73
2021/03/13 01:42:26;;;;;;;2.45;1.17;;;;;;;2.26;59.51;96091.59;5013842;28;20034;-73
2021/03/13 01:44:59;;;;;;;4.22;1.10;;;;;;;2.18;59.62;96087.13;5014596;28;20026;-73
2021/03/13 01:47:28;;;;;;;2.63;1.08;;;;;;;2.11;59.78;96086.81;4996811;28;20042;-74
2021/03/13 01:49:59;;;;;;;3.17;1.17;;;;;;;2.13;59.39;96079.00;5009614;28;20064;-73
2021/03/13 01:52:33;;;;;;;4.55;0.88;;;;;;;2.06;59.51;96073.59;5017394;28;20109;-73
2021/03/13 01:55:03;;;;;;;1.52;1.00;;;;;;;1.96;60.47;96085.56;5012626;28;20042;-74
2021/03/13 01:57:31;;;;;;;3.05;0.93;;;;;;;1.82;60.58;96072.16;5015537;28;20049;-73
2021/03/13 01:59:57;;;;;;;6.15;1.00;;;;;;;1.93;60.25;96075.56;4995991;28;20430;-73
2021/03/13 02:02:24;;;;;;;1.98;0.90;;;;;;;1.91;60.40;96072.31;5015549;28;20080;-73
2021/03/13 02:04:51;;;;;;;6.65;1.10;;;;;;;1.89;60.19;96074.19;4997425;28;20066;-73
2021/03/13 02:07:43;;;;;;;2.67;0.90;;;;;;;1.82;60.49;96077.28;4980217;28;20048;-73
2021/03/13 02:10:37;;;;;;;2.53;0.90;;;;;;;2.06;58.77;96068.44;4999925;28;20049;-73
2021/03/13 02:13:51;;;;;;;1.88;0.68;;;;;;;2.04;58.81;96083.16;4998026;28;20534;-73
2021/03/13 02:16:43;;;;;;;3.80;0.88;;;;;;;2.12;57.81;96073.06;4966548;28;20145;-73
2021/03/13 02:19:34;;;;;;;3.00;0.93;;;;;;;2.28;57.64;96075.13;5016846;28;21160;-73
2021/03/13 02:22:05;;;;;;;4.45;1.02;;;;;;;2.37;56.58;96078.66;5013580;28;20077;-73
2021/03/13 02:25:06;;;;;;;2.15;0.85;;;;;;;2.23;57.44;96075.50;5000151;28;20461;-73
2021/03/13 02:27:48;;;;;;;1.65;0.90;;;;;;;2.20;57.70;96083.50;4989779;28;20140;-73
2021/03/13 02:30:27;;;;;;;2.40;0.90;;;;;;;2.05;58.24;96079.66;5011039;28;20486;-74
2021/03/13 02:33:01;;;;;;;2.60;0.55;;;;;;;1.98;58.48;96078.53;4993599;28;20046;-73
2021/03/13 02:35:40;;;;;;;2.13;0.80;;;;;;;2.04;58.42;96083.16;4991300;28;20061;-74
2021/03/13 02:38:11;;;;;;;2.97;0.70;;;;;;;2.13;57.96;96064.41;4994305;28;20042;-73
2021/03/13 02:40:40;;;;;;;2.05;0.75;;;;;;;2.22;57.08;96061.06;4994398;28;20050;-73
2021/03/13 02:43:09;;;;;;;2.30;0.80;;;;;;;2.27;56.79;96047.03;4996816;28;20046;-73
2021/03/13 02:45:42;;;;;;;1.52;0.98;;;;;;;1.97;58.24;96048.69;4994978;28;20041;-73
2021/03/13 02:48:15;;;;;;;2.45;0.80;;;;;;;2.04;57.70;96058.31;5009407;28;20687;-73
2021/03/13 02:50:43;;;;;;;1.92;0.80;;;;;;;1.81;59.15;96051.75;4996223;28;20572;-73
2021/03/13 02:53:16;;;;;;;2.50;0.95;;;;;;;1.70;59.82;96055.22;4994818;28;20108;-73
2021/03/13 02:55:50;;;;;;;3.53;0.95;;;;;;;2.09;57.70;96045.06;4995031;28;20034;-74
2021/03/13 02:58:21;;;;;;;2.03;0.70;;;;;;;1.98;58.29;96048.53;5011770;28;20049;-73
2021/03/13 03:00:50;;;;;;;3.47;0.98;;;;;;;1.75;59.65;96052.25;4993523;28;20563;-74
2021/03/13 03:03:22;;;;;;;2.63;0.80;;;;;;;1.63;59.74;96048.97;5008990;28;20109;-73
2021/03/13 03:06:08;;;;;;;2.60;0.60;;;;;;;1.59;60.16;96055.31;5003958;28;20040;-73
2021/03/13 03:08:42;;;;;;;2.08;0.90;;;;;;;1.58;60.09;96051.09;5008692;28;20042;-73
2021/03/13 03:11:10;;;;;;;1.92;0.80;;;;;;;1.49;60.51;96051.88;4992511;28;20052;-73
2021/03/13 03:13:40;;;;;;;2.15;0.63;;;;;;;1.60;60.27;96044.09;4991124;28;20041;-73
2021/03/13 03:16:08;;;;;;;2.45;0.70;;;;;;;1.84;58.91;96051.47;5009256;28;20042;-73
2021/03/13 03:18:35;;;;;;;1.98;0.70;;;;;;;1.81;59.20;96046.59;5006628;28;20050;-74
2021/03/13 03:21:04;;;;;;;1.42;0.52;;;;;;;1.93;58.85;96055.03;5011159;28;20034;-73
2021/03/13 03:23:30;;;;;;;3.22;0.73;;;;;;;1.83;59.07;96040.41;4994346;28;20042;-73
2021/03/13 03:25:57;;;;;;;2.15;0.68;;;;;;;1.86;59.18;96053.91;5012322;28;20034;-73
2021/03/13 03:28:27;;;;;;;1.17;0.60;;;;;;;1.71;60.32;96045.75;4993784;28;20042;-74
2021/03/13 03:31:02;;;;;;;1.42;0.60;;;;;;;1.82;59.45;96058.47;5009083;28;20109;-74
2021/03/13 03:33:30;;;;;;;2.33;0.60;;;;;;;1.88;59.46;96057.97;5014438;28;20033;-73
2021/03/13 03:36:03;;;;;;;1.83;0.68;;;;;;;1.84;59.11;96041.19;4995669;28;20038;-73
2021/03/13 03:38:31;;;;;;;2.75;0.80;;;;;;;1.63;60.82;96044.66;4991188;28;20054;-73
2021/03/13 03:40:57;;;;;;;1.02;0.68;;;;;;;1.74;60.26;96046.31;5009684;28;20030;-73
2021/03/13 03:43:42;;;;;;;2.45;0.90;;;;;;;1.58;61.17;96046.78;4993208;28;20417;-73
2021/03/13 03:46:12;;;;;;;2.22;0.88;;;;;;;1.57;61.21;96044.34;4989680;28;20105;-74
2021/03/13 03:48:40;;;;;;;2.45;0.77;;;;;;;1.55;61.66;96038.53;4993466;28;20378;-73
2021/03/13 03:51:15;;;;;;;3.17;1.00;;;;;;;1.75;61.27;96055.63;4996123;28;20131;-73
2021/03/13 03:53:51;;;;;;;2.17;0.80;;;;;;;1.97;60.47;96046.94;4992467;28;20064;-73
2021/03/13 03:56:23;;;;;;;2.35;0.80;;;;;;;1.95;60.33;96048.03;5010350;28;20094;-74
2021/03/13 03:58:51;;;;;;;3.25;0.70;;;;;;;1.96;60.53;96059.91;5007309;28;20046;-73
2021/03/13 04:01:20;;;;;;;0.82;0.50;;;;;;;2.22;59.62;96058.50;5012259;28;20161;-73
2021/03/13 04:03:54;;;;;;;1.67;0.60;;;;;;;2.35;59.03;96049.72;5009639;28;20096;-73
2021/03/13 04:06:22;;;;;;;3.20;0.70;;;;;;;2.51;58.50;96060.28;5006882;28;20082;-73
2021/03/13 04:08:52;;;;;;;1.75;0.60;;;;;;;2.69;58.24;96062.19;5005685;28;20046;-73
2021/03/13 04:11:21;;;;;;;2.08;0.70;;;;;;;2.50;59.08;96060.41;4993319;28;20054;-73
2021/03/13 04:13:52;;;;;;;2.50;0.52;;;;;;;2.41;59.84;96059.47;5010110;28;20482;-73
2021/03/13 04:16:19;;;;;;;1.27;0.60;;;;;;;2.01;61.99;96057.75;4992010;28;20143;-73
2021/03/13 04:18:45;;;;;;;2.35;0.85;;;;;;;2.05;61.94;96053.97;5008733;28;20161;-73
2021/03/13 04:21:12;;;;;;;3.38;0.68;;;;;;;2.00;62.41;96056.13;4992453;28;20077;-73
2021/03/13 04:23:44;;;;;;;5.60;0.60;;;;;;;1.83;63.00;96057.56;4993664;28;20054;-73
2021/03/13 04:26:10;;;;;;;2.20;0.50;;;;;;;2.10;62.84;96051.84;4994836;28;20430;-73
2021/03/13 04:28:37;;;;;;;2.75;0.70;;;;;;;2.27;62.21;96052.16;5010478;28;20041;-73
2021/03/13 04:31:05;;;;;;;1.15;0.55;;;;;;;2.25;62.59;96031.72;5010825;28;20101;-74
2021/03/13 04:33:33;;;;;;;1.88;0.80;;;;;;;2.36;62.84;96049.59;5011890;28;20100;-73
2021/03/13 04:36:00;;;;;;;1.63;0.85;;;;;;;2.42;62.68;96043.91;5013173;28;20034;-73
2021/03/13 04:38:27;;;;;;;0.68;0.28;;;;;;;2.59;62.32;96042.44;4995423;28;20114;-73
2021/03/13 04:40:53;;;;;;;2.28;0.50;;;;;;;2.31;62.93;96020.09;5009386;28;20046;-74
2021/03/13 04:43:23;;;;;;;0.93;0.40;;;;;;;2.59;62.73;96021.91;5008750;28;20034;-74
2021/03/13 04:45:50;;;;;;;3.15;0.55;;;;;;;2.90;61.61;96023.50;4996627;28;20042;-74
2021/03/13 04:48:17;;;;;;;0.95;0.30;;;;;;;3.01;61.42;96016.47;5010561;28;20074;-73
2021/03/13 04:50:43;;;;;;;2.17;0.40;;;;;;;3.40;60.36;96028.44;5001001;28;20077;-73
2021/03/13 04:53:09;;;;;;;3.63;0.43;;;;;;;3.23;61.02;96017.91;5012690;28;20052;-73
2021/03/13 04:55:35;;;;;;;1.85;0.45;;;;;;;3.17;61.30;96025.38;5009393;28;20046;-73
2021/03/13 04:58:02;;;;;;;2.65;0.95;;;;;;;3.31;60.96;96019.00;5012966;28;20054;-73
2021/03/13 05:00:28;;;;;;;1.67;0.45;;;;;;;3.44;60.92;96022.88;4993760;28;20076;-73
2021/03/13 05:02:54;;;;;;;0.80;0.43;;;;;;;3.37;61.57;96026.97;4994965;28;20116;-73
2021/03/13 05:05:22;;;;;;;1.40;0.40;;;;;;;4.18;58.18;96034.06;5011236;28;20038;-73
2021/03/13 05:07:49;;;;;;;0.73;0.30;;;;;;;3.94;58.15;96034.63;5013070;28;20044;-73
2021/03/13 05:10:15;;;;;;;2.05;0.47;;;;;;;3.64;58.87;96023.63;5012532;28;20041;-73
2021/03/13 05:12:43;;;;;;;3.70;0.60;;;;;;;3.64;58.81;96018.47;5013666;28;20074;-73
2021/03/13 05:15:09;;;;;;;;;;;;;;;3.35;59.47;96028.84;5012761;28;20041;-74
2021/03/13 05:17:35;;;;;;;3.25;0.73;;;;;;;3.18;59.86;96020.09;4997952;28;20373;-73
2021/03/13 05:20:05;;;;;;;2.23;0.63;;;;;;;3.34;59.19;96019.50;4993712;28;20037;-74
2021/03/13 05:22:31;;;;;;;2.95;1.13;;;;;;;3.26;59.59;96019.41;5010831;28;21120;-73
2021/03/13 05:24:57;;;;;;;2.15;0.90;;;;;;;3.28;59.63;96017.50;5010431;28;20062;-73
2021/03/13 05:27:23;;;;;;;2.85;0.60;;;;;;;3.51;59.01;96012.81;4985983;28;20092;-73
2021/03/13 05:29:49;;;;;;;2.47;0.60;;;;;;;3.41;59.40;96001.78;5009885;28;20047;-75
2021/03/13 05:32:16;;;;;;;2.28;0.60;;;;;;;3.31;59.81;95988.13;4994861;28;20109;-74
2021/03/13 05:34:42;;;;;;;3.15;0.70;;;;;;;3.32;59.55;96003.41;4996179;28;20417;-73
2021/03/13 05:37:09;;;;;;;1.63;0.60;;;;;;;3.27;59.53;95995.28;4993490;28;20077;-73
2021/03/13 05:39:35;;;;;;;2.38;0.45;;;;;;;3.63;58.48;95991.09;4996285;28;20052;-74
2021/03/13 05:42:03;;;;;;;1.15;0.52;;;;;;;3.82;58.02;95995.34;5009051;28;20045;-73
2021/03/13 05:44:31;;;;;;;0.70;0.30;;;;;;;4.17;57.21;95996.41;4976352;28;20084;-74
2021/03/13 05:46:58;;;;;;;1.00;0.50;;;;;;;4.21;56.64;95997.75;5006700;28;20500;-70
2021/03/13 05:49:25;;;;;;;2.35;0.55;;;;;;;4.11;56.68;95994.41;5007718;28;20045;-73
2021/03/13 05:51:55;;;;;;;2.47;0.70;;;;;;;4.28;56.15;95995.38;5011320;28;20136;-73
2021/03/13 05:54:21;;;;;;;1.23;0.50;;;;;;;4.22;56.36;95991.63;5008996;28;20069;-72
2021/03/13 05:56:48;;;;;;;1.58;0.60;;;;;;;4.34;55.92;95993.97;5008637;28;20129;-73
2021/03/13 05:59:14;;;;;;;3.92;0.85;;;;;;;4.08;56.50;95985.22;4996615;28;20489;-72
2021/03/13 06:01:42;;;;;;;2.45;0.77;;;;;;;4.17;56.52;96004.13;5009528;28;20046;-71
2021/03/13 06:04:22;;;;;;;3.38;0.70;;;;;;;4.22;55.61;95994.19;5005606;28;20046;-72
2021/03/13 06:06:51;;;;;;;2.45;0.60;;;;;;;4.14;56.12;95996.69;5012553;28;20041;-69
2021/03/13 06:09:17;;;;;;;2.35;0.75;;;;;;;4.28;55.60;96001.34;5007086;28;20088;-70
2021/03/13 06:11:43;;;;;;;2.20;0.77;;;;;;;4.11;55.99;96003.88;5014982;28;20054;-70
2021/03/13 06:14:09;;;;;;;1.17;0.68;;;;;;;4.02;56.15;95996.09;5008599;28;20445;-70
2021/03/13 06:16:36;;;;;;;2.38;0.77;;;;;;;4.00;56.58;95999.72;4998071;28;20041;-70
2021/03/13 06:19:02;;;;;;;1.50;0.80;;;;;;;3.81;56.91;95990.34;4995467;28;20401;-70
2021/03/13 06:21:31;;;;;;;2.72;0.70;;;;;;;3.92;56.32;96008.19;5004947;28;20062;-70
2021/03/13 06:24:07;;;;;;;2.83;0.88;;;;;;;3.85;56.48;96002.81;4994912;28;20060;-70
2021/03/13 06:26:49;;;;;;;2.38;0.88;;;;;;;3.88;56.82;95996.56;5008943;28;20046;-70
2021/03/13 06:29:17;;;;;;;1.77;1.00;;;;;;;3.91;57.02;95990.31;5010231;28;20056;-70
2021/03/13 06:31:43;;;;;;;2.33;1.10;;;;;;;3.99;57.29;95987.81;4993096;28;20049;-70
2021/03/13 06:34:25;;;;;;;2.90;0.82;;;;;;;4.02;56.06;95990.94;4992988;28;20045;-70
2021/03/13 06:37:21;;;;;;;1.63;0.88;;;;;;;4.07;56.28;95988.72;5005329;28;20310;-70
2021/03/13 06:39:48;;;;;;;0.80;0.47;;;;;;;4.27;55.67;95984.25;5009090;28;20050;-70
2021/03/13 06:42:19;;;;;;;;;;;;;;;4.28;55.44;95985.88;4992711;28;20061;-70
2021/03/13 06:45:12;;;;;;;2.08;0.90;;;;;;;4.34;55.43;95984.50;4992037;28;19961;-70
2021/03/13 06:47:40;;;;;;;1.50;0.60;;;;;;;4.40;55.17;95983.06;4991880;28;20050;-70
2021/03/13 06:50:15;;;;;;;2.35;0.80;;;;;;;4.29;56.01;95994.41;4992051;28;20050;-70
2021/03/13 06:52:44;;;;;;;2.60;0.85;;;;;;;4.45;55.22;95986.84;5008500;28;20107;-70
2021/03/13 06:55:20;;;;;;;2.90;0.85;;;;;;;4.54;54.62;95990.31;4992733;28;20049;-70
2021/03/13 06:57:49;;;;;;;2.65;0.80;;;;;;;4.68;54.64;95981.25;4994501;28;20056;-71
2021/03/13 07:00:31;;;;;;;1.58;0.82;;;;;;;4.83;54.13;95984.13;4991473;28;20274;-71
2021/03/13 07:03:14;;;;;;;2.15;0.85;;;;;;;4.89;53.95;95973.19;5005858;28;20109;-70
2021/03/13 07:05:45;;;;;;;1.77;0.70;;;;;;;5.07;53.02;95981.69;5006506;28;20050;-71
2021/03/13 07:08:28;;;;;;;1.73;0.65;;;;;;;5.42;52.00;95974.00;5001961;28;20050;-68
2021/03/13 07:11:02;;;;;;;3.20;0.80;;;;;;;5.38;52.11;95975.28;5002301;28;20057;-69
2021/03/13 07:13:53;;;;;;;4.05;0.80;;;;;;;5.53;51.78;95967.78;5006223;28;20132;-67
2021/03/13 07:16:21;;;;;;;4.90;1.15;;;;;;;5.76;51.33;95986.09;5002618;28;20549;-67
2021/03/13 07:18:48;;;;;;;3.28;0.75;;;;;;;5.68;52.32;95979.13;5004702;28;20122;-66
2021/03/13 07:21:15;;;;;;;4.40;1.17;;;;;;;5.59;53.30;95990.38;5004606;28;20052;-66
2021/03/13 07:23:49;;;;;;;2.33;1.05;;;;;;;5.83;52.94;95995.66;5004998;28;20045;-68
2021/03/13 07:26:16;;;;;;;3.72;0.95;;;;;;;6.51;51.58;95991.34;5006225;28;20049;-71
2021/03/13 07:28:44;;;;;;;3.22;0.90;;;;;;;5.90;53.05;95990.66;5008885;28;20068;-70
2021/03/13 07:31:11;;;;;;;1.20;0.55;;;;;;;6.62;52.34;96005.75;5004751;28;20053;-70
2021/03/13 07:33:39;;;;;;;2.70;0.80;;;;;;;6.64;51.48;95996.06;5003874;28;20129;-71
2021/03/13 07:36:16;;;;;;;;;;;;;;;6.47;51.72;95995.22;4992174;28;20053;-70
2021/03/13 07:38:45;;;;;;;4.20;0.80;;;;;;;6.59;51.21;95998.31;5005009;28;20282;-71
2021/03/13 07:41:16;;;;;;;1.63;0.80;;;;;;;6.47;51.51;95995.22;4988519;28;20054;-70
2021/03/13 07:43:44;;;;;;;2.63;0.90;;;;;;;6.81;50.72;95997.66;5003153;28;20073;-71
2021/03/13 07:46:11;;;;;;;3.33;0.80;;;;;;;6.96;49.91;95984.91;5003036;28;20038;-70
2021/03/13 07:48:38;;;;;;;2.97;1.00;;;;;;;7.04;48.43;95992.66;5005567;28;20648;-71
2021/03/13 07:51:06;;;;;;;1.67;0.75;;;;;;;7.16;48.37;95982.00;5000233;28;20052;-72
2021/03/13 07:53:36;;;;;;;1.95;0.70;;;;;;;7.16;48.33;95987.16;5003600;28;20391;-71
2021/03/13 07:56:04;;;;;;;2.55;0.70;;;;;;;7.53;47.43;95982.25;5004405;28;20045;-71
2021/03/13 07:58:31;;;;;;;3.00;0.80;;;;;;;8.10;45.94;95970.03;5002057;28;20052;-70
2021/03/13 08:00:59;;;;;;;2.63;1.00;;;;;;;8.16;45.99;95962.38;5004835;28;21212;-72
2021/03/13 08:03:38;;;;;;;1.80;0.60;;;;;;;7.95;45.92;95975.13;5010549;28;20070;-72
2021/03/13 08:06:07;;;;;;;2.45;0.70;;;;;;;7.64;46.52;95968.13;4994769;28;20217;-72
2021/03/13 08:08:41;;;;;;;1.80;0.85;;;;;;;7.62;46.34;95964.06;5006783;28;20128;-72
2021/03/13 08:11:15;;;;;;;1.70;0.77;;;;;;;8.09;45.32;95965.81;5010915;28;20104;-72
2021/03/13 08:13:41;;;;;;;2.13;0.88;;;;;;;8.41;44.08;95964.06;4997026;28;20049;-72
2021/03/13 08:16:27;;;;;;;3.63;0.80;;;;;;;9.37;42.81;95960.00;5003019;28;20042;-71
2021/03/13 08:18:54;;;;;;;1.65;0.70;;;;;;;8.41;42.48;95948.50;5002621;28;20137;-72
2021/03/13 08:21:38;;;;;;;1.95;0.80;;;;;;;8.25;43.66;95957.94;5008101;28;20057;-71
2021/03/13 08:24:09;;;;;;;2.80;0.80;;;;;;;8.43;43.34;95951.72;4989144;28;20042;-69
2021/03/13 08:26:35;;;;;;;1.90;0.90;;;;;;;8.39;44.07;95953.00;5004131;28;20345;-71
2021/03/13 08:29:04;;;;;;;1.67;1.10;;;;;;;8.66;42.85;95946.53;5001466;28;20057;-72
2021/03/13 08:31:38;;;;;;;2.38;1.10;;;;;;;9.12;42.42;95939.47;5002198;28;20053;-71
2021/03/13 08:34:04;;;;;;;3.13;0.90;;;;;;;8.60;42.75;95932.47;5003950;28;20065;-70
2021/03/13 08:36:39;;;;;;;1.73;0.80;;;;;;;8.36;43.29;95933.44;5004374;28;20030;-72
2021/03/13 08:39:07;;;;;;;2.08;0.90;;;;;;;8.42;42.81;95934.53;5006956;28;20034;-70
2021/03/13 08:41:43;;;;;;;1.48;0.77;;;;;;;9.00;43.27;95927.91;5008042;28;20041;-71
2021/03/13 08:44:15;;;;;;;2.40;1.02;;;;;;;8.99;44.61;95931.47;5002890;28;20053;-71
2021/03/13 08:46:56;;;;;;;2.95;0.98;;;;;;;9.48;43.56;95925.81;5004087;28;20757;-71
2021/03/13 08:49:26;;;;;;;2.65;0.93;;;;;;;10.05;43.24;95916.47;5006297;28;20042;-71
2021/03/13 08:52:04;;;;;;;1.40;0.83;;;;;;;9.35;44.70;95910.03;5003819;28;20042;-70
2021/03/13 08:54:47;;;;;;;1.58;0.70;;;;;;;8.41;43.64;95909.59;5011220;28;20129;-71
2021/03/13 08:57:14;;;;;;;2.42;0.80;;;;;;;8.98;42.78;95916.09;5007241;28;20041;-71
2021/03/13 08:59:43;;;;;;;2.88;0.88;;;;;;;9.30;41.86;95901.97;5008015;28;20144;-71
2021/03/13 09:02:17;;;;;;;1.45;0.80;;;;;;;9.27;40.98;95897.13;5011253;28;20545;-69
2021/03/13 09:04:47;;;;;;;4.20;0.95;;;;;;;9.30;40.64;95897.56;4994039;28;20050;-70
2021/03/13 09:07:14;;;;;;;3.95;0.82;;;;;;;8.98;40.60;95888.34;4993845;28;20036;-71
2021/03/13 09:09:41;;;;;;;3.22;0.90;;;;;;;9.19;40.10;95894.63;5007587;28;20050;-70
2021/03/13 09:12:10;;;;;;;;;;;;;;;8.93;40.01;95885.44;5009449;28;20050;-70
2021/03/13 09:14:42;;;;;;;4.63;0.70;;;;;;;8.89;40.25;95882.44;5009223;28;19925;-72
2021/03/13 09:17:10;;;;;;;2.47;0.90;;;;;;;9.10;39.98;95875.72;5005686;28;20104;-68
2021/03/13 09:19:36;;;;;;;1.73;0.85;;;;;;;9.38;39.58;95865.53;4991571;28;20140;-68
2021/03/13 09:22:25;;;;;;;1.45;0.70;;;;;;;9.76;38.15;95860.19;5005488;28;20693;-71
2021/03/13 09:24:55;;;;;;;2.33;1.05;;;;;;;10.88;36.03;95858.78;5009828;28;20053;-70
2021/03/13 09:27:27;;;;;;;1.73;1.02;;;;;;;10.86;36.27;95858.16;5002643;28;20034;-70
2021/03/13 09:29:54;;;;;;;1.30;0.60;;;;;;;11.38;35.66;95843.84;5006649;28;20132;-70
2021/03/13 09:32:22;;;;;;;2.60;0.80;;;;;;;10.96;36.46;95837.81;5006252;28;20078;-70
2021/03/13 09:34:50;;;;;;;1.70;0.70;;;;;;;11.84;36.08;95827.56;5005112;28;20042;-69
2021/03/13 09:37:25;;;;;;;3.00;1.00;;;;;;;11.82;33.78;95819.16;5006508;28;20065;-69
2021/03/13 09:39:54;;;;;;;1.85;0.90;;;;;;;12.08;33.75;95807.19;5004052;28;20049;-69
2021/03/13 09:42:27;;;;;;;3.47;1.52;;;;;;;11.51;33.89;95809.22;5007745;28;20540;-70
2021/03/13 09:44:56;;;;;;;2.50;1.42;;;;;;;11.56;34.45;95801.63;5011014;28;20058;-69
2021/03/13 09:47:28;;;;;;;9.18;1.52;;;;;;;11.26;34.90;95806.31;5009763;28;20034;-70
2021/03/13 09:49:57;;;;;;;25.02;3.30;;;;;;;11.82;34.64;95795.69;5011509;28;20057;-72
2021/03/13 09:52:24;;;;;;;2.78;0.98;;;;;;;11.74;34.71;95801.06;5010497;28;20508;-71
2021/03/13 09:54:58;;;;;;;2.60;1.20;;;;;;;11.71;34.08;95796.25;5014032;28;20038;-72
2021/03/13 09:57:26;;;;;;;2.20;1.20;;;;;;;11.13;34.72;95800.06;5013287;28;20113;-70
2021/03/13 09:59:53;;;;;;;2.03;1.40;;;;;;;11.56;34.38;95792.00;5012613;28;20084;-70
2021/03/13 10:02:21;;;;;;;1.10;0.60;;;;;;;10.85;34.63;95787.06;4983690;28;20547;-70
2021/03/13 10:04:52;;;;;;;0.55;0.43;;;;;;;11.08;34.83;95781.59;5011497;28;20092;-70
2021/03/13 10:07:27;;;;;;;2.40;0.90;;;;;;;11.59;34.25;95773.34;5009374;28;20117;-70
2021/03/13 10:09:56;;;;;;;0.77;0.70;;;;;;;11.18;34.76;95756.00;5009424;28;20054;-71
2021/03/13 10:12:28;;;;;;;3.97;1.10;;;;;;;10.78;35.44;95755.00;5006666;28;20530;-70
2021/03/13 10:14:55;;;;;;;1.38;0.68;;;;;;;10.64;35.68;95748.09;5007328;28;20117;-71
2021/03/13 10:17:22;;;;;;;3.88;1.70;;;;;;;11.14;35.07;95752.16;5010424;28;20046;-71
2021/03/13 10:19:49;;;;;;;3.60;1.27;;;;;;;12.67;32.68;95748.16;5010808;28;20041;-71
2021/03/13 10:22:20;;;;;;;2.88;0.85;;;;;;;11.95;33.84;95746.19;5012303;28;20054;-71
2021/03/13 10:24:49;;;;;;;1.75;1.23;;;;;;;12.40;32.86;95737.75;5007987;28;20042;-71
2021/03/13 10:27:28;;;;;;;2.50;1.20;;;;;;;13.16;32.39;95746.81;4994270;28;20072;-72
2021/03/13 10:29:56;;;;;;;1.20;0.83;;;;;;;14.89;30.77;95729.91;4993748;28;20121;-72
2021/03/13 10:32:29;;;;;;;2.55;0.90;;;;;;;13.57;31.34;95735.19;4993721;28;20295;-71
2021/03/13 10:35:08;;;;;;;2.00;1.10;;;;;;;14.63;29.78;95723.91;5010786;28;20054;-72
2021/03/13 10:38:09;;;;;;;2.65;1.10;;;;;;;15.25;30.76;95729.06;5007321;28;20736;-73
2021/03/13 10:40:36;;;;;;;4.05;1.20;;;;;;;14.34;31.35;95735.84;4981767;28;20105;-72
2021/03/13 10:43:12;;;;;;;;;;;;;;;16.46;29.00;95734.19;5008488;28;20034;-71
2021/03/13 10:45:38;;;;;;;1.90;1.10;;;;;;;16.58;28.20;95730.78;5005780;28;19929;-71
2021/03/13 10:48:12;;;;;;;4.47;1.27;;;;;;;16.96;27.06;95740.03;5002450;28;20049;-70
2021/03/13 10:50:42;;;;;;;2.55;0.70;;;;;;;18.52;25.26;95731.75;5009057;28;20061;-72
2021/03/13 10:53:30;;;;;;;1.77;0.90;;;;;;;18.95;25.57;95732.13;4993560;28;20503;-73
2021/03/13 10:56:02;;;;;;;1.92;0.98;;;;;;;18.35;25.23;95736.25;5008121;28;20085;-72
2021/03/13 10:58:33;;;;;;;5.75;3.88;;;;;;;16.36;27.31;95730.53;5009895;28;20084;-70
2021/03/13 11:01:02;;;;;;;2.00;1.20;;;;;;;16.13;28.07;95719.00;5009801;28;20073;-68
2021/03/13 11:03:29;;;;;;;3.72;1.35;;;;;;;16.26;27.67;95733.75;5006699;28;20073;-71
2021/03/13 11:05:56;;;;;;;1.47;1.03;;;;;;;18.57;25.83;95724.97;5007582;28;20046;-70
2021/03/13 11:08:23;;;;;;;2.10;1.30;;;;;;;18.74;24.95;95714.41;5007969;28;20297;-71
2021/03/13 11:10:50;;;;;;;;;;;;;;;18.36;24.92;95708.84;5003936;28;20053;-72
2021/03/13 11:13:17;;;;;;;1.27;1.00;;;;;;;23.27;21.77;95703.91;5006828;28;19952;-75
2021/03/13 11:15:44;;;;;;;1.83;1.00;;;;;;;20.80;21.62;95705.56;5008610;28;20464;-69
2021/03/13 11:18:10;;;;;;;3.25;1.70;;;;;;;20.05;22.95;95694.22;4992263;28;20113;-69
2021/03/13 11:20:38;;;;;;;1.23;0.80;;;;;;;20.16;23.21;95684.53;5006224;28;20048;-70
2021/03/13 11:23:04;;;;;;;1.42;0.98;;;;;;;20.98;23.92;95688.47;5004378;28;20042;-70
2021/03/13 11:25:30;;;;;;;1.52;1.25;;;;;;;20.33;23.51;95687.81;5005954;28;20041;-70
2021/03/13 11:27:57;;;;;;;2.92;0.75;;;;;;;21.05;21.93;95686.38;5005820;28;20117;-68
2021/03/13 11:30:24;;;;;;;1.13;0.77;;;;;;;18.85;25.11;95684.50;4985259;28;20050;-71
2021/03/13 11:32:50;;;;;;;1.73;0.80;;;;;;;17.43;26.22;95689.94;5002370;28;20073;-69
2021/03/13 11:35:19;;;;;;;0.90;0.70;;;;;;;18.15;26.10;95683.25;5001001;28;20485;-70
2021/03/13 11:37:47;;;;;;;2.13;1.25;;;;;;;17.97;26.11;95679.00;5004507;28;21316;-70
2021/03/13 11:40:15;;;;;;;2.22;1.90;;;;;;;18.85;24.57;95673.97;4999523;28;20049;-71
2021/03/13 11:42:42;;;;;;;1.42;0.80;;;;;;;19.85;23.81;95671.06;4990003;28;20152;-70
2021/03/13 11:45:12;;;;;;;3.28;1.30;;;;;;;18.02;26.58;95661.47;4987725;28;20149;-70
2021/03/13 11:47:39;;;;;;;1.52;0.70;;;;;;;16.59;27.71;95656.19;4999051;28;20398;-70
2021/03/13 11:50:14;;;;;;;2.08;0.70;;;;;;;17.30;26.91;95648.94;5000250;28;20050;-70
2021/03/13 11:52:41;;;;;;;1.80;0.80;;;;;;;22.61;23.08;95643.88;5007317;28;20046;-74
2021/03/13 11:55:10;;;;;;;3.28;1.20;;;;;;;23.06;20.89;95623.56;5003199;28;20053;-69
2021/03/13 11:57:37;;;;;;;0.70;0.70;;;;;;;22.64;20.79;95633.50;4988666;28;20046;-70